Home > Products > Valid Products > TAF

000
FTUS45 KBOI 220520
TAFBNO
TAF
KBNO 220520Z 2206/2306 VRB03KT P6SM FEW100 BKN250
     FM221800 12010KT P6SM BKN100 OVC200
     FM230200 VRB06KT P6SM VCSH SCT070 OVC100=



000
FTUS45 KBOI 220520
TAFBOI
TAF
KBOI 220520Z 2206/2306 13009KT P6SM BKN250=



000
FTUS45 KBOI 220520
TAFJER
TAF
KJER 220520Z 2206/2306 VRB05KT P6SM SCT250
     FM221300 07009KT P6SM BKN250=



000
FTUS45 KBOI 220520
TAFBKE
TAF
KBKE 220520Z 2206/2306 VRB04KT P6SM BKN250
     FM221100 11008KT P6SM SCT100 OVC200
     FM221800 11015G25KT P6SM BKN100 OVC200
     FM230200 12014KT P6SM VCSH SCT070 OVC100=



000
FTUS45 KBOI 220520
TAFMYL
TAF
KMYL 220520Z 2206/2306 VRB03KT P6SM VCFG FEW001 SCT050 BKN250
      TEMPO 2206/2209 2SM BR SCT001
     FM220900 VRB03KT 1SM BR BKN010
      TEMPO 2210/2212 1/2SM FZFG BKN005
     FM221200 VRB03KT 1/2SM FZFG OVC005
     FM221700 17009KT P6SM SCT100 OVC200
     FM230300 VRB03KT P6SM FEW070 OVC100=



000
FTUS45 KBOI 220520
TAFTWF
TAF
KTWF 220520Z 2206/2306 17008KT P6SM SCT250
     FM221700 10007KT P6SM BKN250
     FM222000 05008KT P6SM BKN250
     FM230200 14008KT P6SM BKN250=



000
FTUS45 KBOI 220520
TAFMYL
TAF
KMYL 220520Z 2206/2306 VRB03KT P6SM VCFG FEW001 SCT050 BKN250
      TEMPO 2206/2209 2SM BR SCT001
     FM220900 VRB03KT 1SM BR BKN010
      TEMPO 2210/2212 1/2SM FZFG BKN005
     FM221200 VRB03KT 1/2SM FZFG OVC005
     FM221700 17009KT P6SM SCT100 OVC200
     FM230300 VRB03KT P6SM FEW070 OVC100=



000
FTUS45 KBOI 220520
TAFBNO
TAF
KBNO 220520Z 2206/2306 VRB03KT P6SM FEW100 BKN250
     FM221800 12010KT P6SM BKN100 OVC200
     FM230200 VRB06KT P6SM VCSH SCT070 OVC100=



000
FTUS45 KBOI 220520
TAFBKE
TAF
KBKE 220520Z 2206/2306 VRB04KT P6SM BKN250
     FM221100 11008KT P6SM SCT100 OVC200
     FM221800 11015G25KT P6SM BKN100 OVC200
     FM230200 12014KT P6SM VCSH SCT070 OVC100=



000
FTUS45 KBOI 220520
TAFJER
TAF
KJER 220520Z 2206/2306 VRB05KT P6SM SCT250
     FM221300 07009KT P6SM BKN250=



000
FTUS45 KBOI 220520
TAFBOI
TAF
KBOI 220520Z 2206/2306 13009KT P6SM BKN250=



000
FTUS45 KBOI 220520
TAFTWF
TAF
KTWF 220520Z 2206/2306 17008KT P6SM SCT250
     FM221700 10007KT P6SM BKN250
     FM222000 05008KT P6SM BKN250
     FM230200 14008KT P6SM BKN250=



000
FTUS45 KBOI 212320
TAFMYL
TAF
KMYL 212320Z 2200/2224 VRB06KT P6SM VCSH SCT020 BKN025
      TEMPO 2200/2201 -SHRA BKN018
     FM220200 VRB03KT P6SM SCT025 BKN060
     FM220900 VRB03KT P6SM VCFG FEW060 BKN250
      TEMPO 2211/2215 2SM BR SCT005
     FM221700 17009KT P6SM SCT100 OVC200=



000
FTUS45 KBOI 212320
TAFTWF
TAF
KTWF 212320Z 2200/2224 27015KT P6SM SCT060
     FM220200 22010KT P6SM SCT250
     FM220900 18008KT P6SM SCT250
     FM221600 11006KT P6SM BKN250
     FM222000 04008KT P6SM BKN250=



000
FTUS45 KBOI 212320
TAFBNO
TAF
KBNO 212320Z 2200/2224 20008KT P6SM SCT045
     FM220300 VRB03KT P6SM SCT100 BKN250
     FM221800 12011KT P6SM BKN100 OVC200=



000
FTUS45 KBOI 212320
TAFBOI
TAF
KBOI 212320Z 2200/2224 VRB05KT P6SM SCT060
     FM220400 13006KT P6SM SCT250
     FM221500 13010KT P6SM BKN250=



000
FTUS45 KBOI 212320
TAFBKE
TAF
KBKE 212320Z 2200/2224 VRB04KT P6SM SCT060
     FM221100 11007KT P6SM SCT100 OVC200
     FM221800 11015G25KT P6SM BKN100 OVC200=



000
FTUS45 KBOI 212320
TAFTWF
TAF
KTWF 212320Z 2200/2224 27015KT P6SM SCT060
     FM220200 22010KT P6SM SCT250
     FM220900 18008KT P6SM SCT250
     FM221600 11006KT P6SM BKN250
     FM222000 04008KT P6SM BKN250=



000
FTUS45 KBOI 212320
TAFBNO
TAF
KBNO 212320Z 2200/2224 20008KT P6SM SCT045
     FM220300 VRB03KT P6SM SCT100 BKN250
     FM221800 12011KT P6SM BKN100 OVC200=



000
FTUS45 KBOI 212320
TAFJER
TAF
KJER 212320Z 2200/2224 26015KT P6SM SCT060
     FM220200 24010KT P6SM SCT250
     FM220800 VRB05KT P6SM SCT250
     FM221300 07008KT P6SM BKN250=



000
FTUS45 KBOI 212320
TAFMYL
TAF
KMYL 212320Z 2200/2224 VRB06KT P6SM VCSH SCT020 BKN025
      TEMPO 2200/2201 -SHRA BKN018
     FM220200 VRB03KT P6SM SCT025 BKN060
     FM220900 VRB03KT P6SM VCFG FEW060 BKN250
      TEMPO 2211/2215 2SM BR SCT005
     FM221700 17009KT P6SM SCT100 OVC200=



000
FTUS45 KBOI 212320
TAFJER
TAF
KJER 212320Z 2200/2224 26015KT P6SM SCT060
     FM220200 24010KT P6SM SCT250
     FM220800 VRB05KT P6SM SCT250
     FM221300 07008KT P6SM BKN250=



000
FTUS45 KBOI 212320
TAFBKE
TAF
KBKE 212320Z 2200/2224 VRB04KT P6SM SCT060
     FM221100 11007KT P6SM SCT100 OVC200
     FM221800 11015G25KT P6SM BKN100 OVC200=



000
FTUS45 KBOI 212320
TAFBOI
TAF
KBOI 212320Z 2200/2224 VRB05KT P6SM SCT060
     FM220400 13006KT P6SM SCT250
     FM221500 13010KT P6SM BKN250=



000
FTUS45 KBOI 212121 AAA
TAFMYL
TAF AMD
KMYL 212121Z 2121/2218 16007KT P6SM VCSH SCT020 BKN040
     FM220000 VRB04KT P6SM VCSH SCT060
      TEMPO 2210/2214 00000KT 2SM BR SCT005
     FM221500 17005KT P6SM BKN200=



000
FTUS45 KBOI 212001 AAA
TAFJER
TAF AMD
KJER 212001Z 2120/2218 25015G25KT P6SM SCT030
     FM220200 24011KT P6SM SKC
     FM220900 VRB05KT P6SM SKC
     FM221100 09005KT P6SM SCT200=



000
FTUS45 KBOI 212001 AAA
TAFJER
TAF AMD
KJER 212001Z 2120/2218 25015G25KT P6SM SCT030
     FM220200 24011KT P6SM SKC
     FM220900 VRB05KT P6SM SKC
     FM221100 09005KT P6SM SCT200=



000
FTUS45 KBOI 211738
TAFBOI
TAF
KBOI 211738Z 2118/2218 VRB05KT P6SM SCT030 BKN060
     FM212000 31008KT P6SM SCT060
     FM220100 31006KT P6SM SKC
     FM220400 13006KT P6SM SKC=



000
FTUS45 KBOI 211738
TAFBKE
TAF
KBKE 211738Z 2118/2218 29007KT P6SM SCT060
     FM220200 14005KT P6SM SCT100=



000
FTUS45 KBOI 211738
TAFMYL
TAF
KMYL 211738Z 2118/2218 27006KT P6SM -SHRA BKN014 OVC025
     FM212100 25012KT P6SM -SHRA SCT020 BKN040
     FM220000 VRB04KT P6SM VCSH SCT060
      TEMPO 2210/2214 00000KT 2SM BR SCT005
     FM221500 17005KT P6SM BKN200=



000
FTUS45 KBOI 211738
TAFJER
TAF
KJER 211738Z 2118/2218 18011KT P6SM SCT050
      TEMPO 2118/2120 24020G30KT 6SM -SHRA BKN030
     FM220200 24011KT P6SM SKC
     FM220900 VRB05KT P6SM SKC
     FM221100 09005KT P6SM SCT200=



000
FTUS45 KBOI 211738
TAFBNO
TAF
KBNO 211738Z 2118/2218 23010KT P6SM SCT030
     FM220300 VRB03KT P6SM SCT150
     FM220700 VRB03KT P6SM BKN100=



000
FTUS45 KBOI 211738
TAFTWF
TAF
KTWF 211738Z 2118/2218 25020G30KT P6SM SCT080
      TEMPO 2118/2120 6SM -SHRA FEW015 BKN035
     FM220100 26015KT P6SM SKC
     FM220300 21013KT P6SM SKC
     FM221100 18007KT P6SM SCT250=



000
FTUS45 KBOI 211227 AAA
TAFTWF
TAF AMD
KTWF 211227Z 2112/2212 24015G25KT P6SM -SHRA SCT080 OVC200
      TEMPO 2112/2114 25025G35KT 6SM -TSRA BKN015CB OVC035
     FM211400 27015G25KT P6SM SCT035 BKN090
      TEMPO 2114/2117 27015G30KT 6SM RA BKN035 OVC080
     FM211700 26020G30KT P6SM SCT060 BKN120
      TEMPO 2117/2119 25030G40KT 6SM -SHRA FEW035 OVC100
     FM220100 26015KT P6SM FEW080
     FM220300 21013KT P6SM SKC
     FM221100 18007KT P6SM BKN200=



000
FTUS45 KBOI 211223 AAA
TAFJER
TAF AMD
KJER 211223Z 2112/2212 24015G30KT P6SM -SHRA SCT070 OVC200
      TEMPO 2112/2113 24030G40KT 6SM -TSRA BKN009CB OVC025
     FM211400 24015G30KT P6SM VCSH SCT015 BKN035 OVC070
      TEMPO 2114/2117 24015G30KT 6SM RA BKN035 OVC070
     FM211700 24020G30KT P6SM SCT050 BKN100
      TEMPO 2117/2120 24030G40KT 6SM -SHRA FEW030 OVC080
     FM220200 24011KT P6SM FEW080
     FM220900 VRB05KT P6SM SKC
     FM221100 09005KT P6SM BKN200=



000
FTUS45 KBOI 211145
TAFJER
TAF
KJER 211145Z 2112/2212 24015G30KT P6SM -SHRA SCT070 OVC200
      TEMPO 2114/2117 24015G30KT 6SM RA BKN035 OVC070
     FM211700 24020G30KT P6SM SCT050 BKN100
      TEMPO 2117/2120 24030G40KT 6SM -SHRA FEW030 OVC080
     FM220200 24011KT P6SM FEW080
     FM220900 VRB05KT P6SM SKC
     FM221100 09005KT P6SM BKN200=



000
FTUS45 KBOI 211145
TAFJER
TAF
KJER 211145Z 2112/2212 24015G30KT P6SM -SHRA SCT070 OVC200
      TEMPO 2114/2117 24015G30KT 6SM RA BKN035 OVC070
     FM211700 24020G30KT P6SM SCT050 BKN100
      TEMPO 2117/2120 24030G40KT 6SM -SHRA FEW030 OVC080
     FM220200 24011KT P6SM FEW080
     FM220900 VRB05KT P6SM SKC
     FM221100 09005KT P6SM BKN200=



000
FTUS45 KBOI 211145
TAFJER
TAF
KJER 211145Z 2112/2212 24015G30KT P6SM -SHRA SCT070 OVC200
      TEMPO 2114/2117 24015G30KT 6SM RA BKN035 OVC070
     FM211700 24020G30KT P6SM SCT050 BKN100
      TEMPO 2117/2120 24030G40KT 6SM -SHRA FEW030 OVC080
     FM220200 24011KT P6SM FEW080
     FM220900 VRB05KT P6SM SKC
     FM221100 09005KT P6SM BKN200=



000
FTUS45 KBOI 211145
TAFJER
TAF
KJER 211145Z 2112/2212 24015G30KT P6SM -SHRA SCT070 OVC200
      TEMPO 2114/2117 24015G30KT 6SM RA BKN035 OVC070
     FM211700 24020G30KT P6SM SCT050 BKN100
      TEMPO 2117/2120 24030G40KT 6SM -SHRA FEW030 OVC080
     FM220200 24011KT P6SM FEW080
     FM220900 VRB05KT P6SM SKC
     FM221100 09005KT P6SM BKN200=



000
FTUS45 KBOI 211136
TAFTWF
TAF
KTWF 211136Z 2112/2212 24015G25KT P6SM -SHRA SCT080 OVC200
      TEMPO 2114/2117 27015G30KT 6SM RA BKN035 OVC080
     FM211700 26020G30KT P6SM SCT060 BKN120
      TEMPO 2117/2119 25030G40KT 6SM -SHRA FEW035 OVC100
     FM220100 26015KT P6SM FEW080
     FM220300 21013KT P6SM SKC
     FM221100 18007KT P6SM BKN200=



000
FTUS45 KBOI 211136
TAFTWF
TAF
KTWF 211136Z 2112/2212 24015G25KT P6SM -SHRA SCT080 OVC200
      TEMPO 2114/2117 27015G30KT 6SM RA BKN035 OVC080
     FM211700 26020G30KT P6SM SCT060 BKN120
      TEMPO 2117/2119 25030G40KT 6SM -SHRA FEW035 OVC100
     FM220100 26015KT P6SM FEW080
     FM220300 21013KT P6SM SKC
     FM221100 18007KT P6SM BKN200=



000
FTUS45 KBOI 211136
TAFTWF
TAF
KTWF 211136Z 2112/2212 24015G25KT P6SM -SHRA SCT080 OVC200
      TEMPO 2114/2117 27015G30KT 6SM RA BKN035 OVC080
     FM211700 26020G30KT P6SM SCT060 BKN120
      TEMPO 2117/2119 25030G40KT 6SM -SHRA FEW035 OVC100
     FM220100 26015KT P6SM FEW080
     FM220300 21013KT P6SM SKC
     FM221100 18007KT P6SM BKN200=



000
FTUS45 KBOI 211136
TAFTWF
TAF
KTWF 211136Z 2112/2212 24015G25KT P6SM -SHRA SCT080 OVC200
      TEMPO 2114/2117 27015G30KT 6SM RA BKN035 OVC080
     FM211700 26020G30KT P6SM SCT060 BKN120
      TEMPO 2117/2119 25030G40KT 6SM -SHRA FEW035 OVC100
     FM220100 26015KT P6SM FEW080
     FM220300 21013KT P6SM SKC
     FM221100 18007KT P6SM BKN200=



000
FTUS45 KBOI 211125 AAA
TAFMYL
TAF AMD
KMYL 211125Z 2111/2212 27006KT 4SM RA FEW008 BKN018 OVC035
      TEMPO 2112/2114 VRB04KT 6SM -RA SCT018 OVC035
     FM212000 25012KT P6SM -SHRA SCT040 BKN060
     FM220000 VRB04KT P6SM VCSH SCT060
     FM220300 VRB02KT P6SM BKN060
      TEMPO 2210/2212 00000KT 6SM BR SCT005=



000
FTUS45 KBOI 211125 AAA
TAFMYL
TAF AMD
KMYL 211125Z 2111/2212 27006KT 4SM RA FEW008 BKN018 OVC035
      TEMPO 2112/2114 VRB04KT 6SM -RA SCT018 OVC035
     FM212000 25012KT P6SM -SHRA SCT040 BKN060
     FM220000 VRB04KT P6SM VCSH SCT060
     FM220300 VRB02KT P6SM BKN060
      TEMPO 2210/2212 00000KT 6SM BR SCT005=



000
FTUS45 KBOI 211125 AAA
TAFMYL
TAF AMD
KMYL 211125Z 2111/2212 27006KT 4SM RA FEW008 BKN018 OVC035
      TEMPO 2112/2114 VRB04KT 6SM -RA SCT018 OVC035
     FM212000 25012KT P6SM -SHRA SCT040 BKN060
     FM220000 VRB04KT P6SM VCSH SCT060
     FM220300 VRB02KT P6SM BKN060
      TEMPO 2210/2212 00000KT 6SM BR SCT005=



000
FTUS45 KBOI 211125 AAA
TAFMYL
TAF AMD
KMYL 211125Z 2111/2212 27006KT 4SM RA FEW008 BKN018 OVC035
      TEMPO 2112/2114 VRB04KT 6SM -RA SCT018 OVC035
     FM212000 25012KT P6SM -SHRA SCT040 BKN060
     FM220000 VRB04KT P6SM VCSH SCT060
     FM220300 VRB02KT P6SM BKN060
      TEMPO 2210/2212 00000KT 6SM BR SCT005=



000
FTUS45 KBOI 211123 CCA
TAFMYL
TAF COR
KMYL 211123Z 2112/2212 27006KT 6SM -RA OVC035
      TEMPO 2114/2118 VRB04KT 4SM RA FEW008 BKN018 OVC035
     FM212000 25012KT P6SM -SHRA SCT040 BKN060
     FM220000 VRB04KT P6SM VCSH SCT060
     FM220300 VRB02KT P6SM BKN060
      TEMPO 2210/2212 00000KT 6SM BR SCT005=



000
FTUS45 KBOI 211123 CCA
TAFMYL
TAF COR
KMYL 211123Z 2112/2212 27006KT 6SM -RA OVC035
      TEMPO 2114/2118 VRB04KT 4SM RA FEW008 BKN018 OVC035
     FM212000 25012KT P6SM -SHRA SCT040 BKN060
     FM220000 VRB04KT P6SM VCSH SCT060
     FM220300 VRB02KT P6SM BKN060
      TEMPO 2210/2212 00000KT 6SM BR SCT005=



000
FTUS45 KBOI 211123 CCA
TAFMYL
TAF COR
KMYL 211123Z 2112/2212 27006KT 6SM -RA OVC035
      TEMPO 2114/2118 VRB04KT 4SM RA FEW008 BKN018 OVC035
     FM212000 25012KT P6SM -SHRA SCT040 BKN060
     FM220000 VRB04KT P6SM VCSH SCT060
     FM220300 VRB02KT P6SM BKN060
      TEMPO 2210/2212 00000KT 6SM BR SCT005=



000
FTUS45 KBOI 211123 CCA
TAFMYL
TAF COR
KMYL 211123Z 2112/2212 27006KT 6SM -RA OVC035
      TEMPO 2114/2118 VRB04KT 4SM RA FEW008 BKN018 OVC035
     FM212000 25012KT P6SM -SHRA SCT040 BKN060
     FM220000 VRB04KT P6SM VCSH SCT060
     FM220300 VRB02KT P6SM BKN060
      TEMPO 2210/2212 00000KT 6SM BR SCT005=



000
FTUS45 KBOI 211120
TAFMYL
TAF
KMYL 211120Z 2112/2212 VRB05KT 6SM -RA OVC035
      TEMPO 2114/2118 31008KT 6SM -RA FEW012 BKN022 OVC035
     FM212000 25012KT P6SM -SHRA SCT040 BKN060
     FM220000 VRB04KT P6SM VCSH SCT060
     FM220300 VRB02KT P6SM BKN060
      TEMPO 2210/2212 00000KT 6SM BR SCT005=



000
FTUS45 KBOI 211120
TAFBOI
TAF
KBOI 211120Z 2112/2212 31011KT P6SM -RA FEW025 OVC045
     FM211600 30015KT P6SM VCSH BKN060
     FM212000 31013G23KT P6SM SCT060
     FM220100 31006KT P6SM FEW200
     FM220300 13006KT P6SM SCT200=



000
FTUS45 KBOI 211120
TAFBKE
TAF
KBKE 211120Z 2112/2212 32011KT P6SM VCSH FEW050 BKN120
     FM211600 31007KT P6SM SCT060
     FM220200 15005KT P6SM SCT100=



000
FTUS45 KBOI 211120
TAFBKE
TAF
KBKE 211120Z 2112/2212 32011KT P6SM VCSH FEW050 BKN120
     FM211600 31007KT P6SM SCT060
     FM220200 15005KT P6SM SCT100=



000
FTUS45 KBOI 211120
TAFBNO
TAF
KBNO 211120Z 2112/2212 24007KT P6SM VCSH SCT050 BKN070
     FM211700 23010KT P6SM SCT040
     FM220300 VRB03KT P6SM SCT150
     FM221100 VRB03KT P6SM BKN100=



000
FTUS45 KBOI 211120
TAFMYL
TAF
KMYL 211120Z 2112/2212 VRB05KT 6SM -RA OVC035
      TEMPO 2114/2118 31008KT 6SM -RA FEW012 BKN022 OVC035
     FM212000 25012KT P6SM -SHRA SCT040 BKN060
     FM220000 VRB04KT P6SM VCSH SCT060
     FM220300 VRB02KT P6SM BKN060
      TEMPO 2210/2212 00000KT 6SM BR SCT005=



000
FTUS45 KBOI 211120
TAFBKE
TAF
KBKE 211120Z 2112/2212 32011KT P6SM VCSH FEW050 BKN120
     FM211600 31007KT P6SM SCT060
     FM220200 15005KT P6SM SCT100=



000
FTUS45 KBOI 211120
TAFBOI
TAF
KBOI 211120Z 2112/2212 31011KT P6SM -RA FEW025 OVC045
     FM211600 30015KT P6SM VCSH BKN060
     FM212000 31013G23KT P6SM SCT060
     FM220100 31006KT P6SM FEW200
     FM220300 13006KT P6SM SCT200=



000
FTUS45 KBOI 211120
TAFBKE
TAF
KBKE 211120Z 2112/2212 32011KT P6SM VCSH FEW050 BKN120
     FM211600 31007KT P6SM SCT060
     FM220200 15005KT P6SM SCT100=



000
FTUS45 KBOI 211120
TAFMYL
TAF
KMYL 211120Z 2112/2212 VRB05KT 6SM -RA OVC035
      TEMPO 2114/2118 31008KT 6SM -RA FEW012 BKN022 OVC035
     FM212000 25012KT P6SM -SHRA SCT040 BKN060
     FM220000 VRB04KT P6SM VCSH SCT060
     FM220300 VRB02KT P6SM BKN060
      TEMPO 2210/2212 00000KT 6SM BR SCT005=



000
FTUS45 KBOI 211120
TAFBOI
TAF
KBOI 211120Z 2112/2212 31011KT P6SM -RA FEW025 OVC045
     FM211600 30015KT P6SM VCSH BKN060
     FM212000 31013G23KT P6SM SCT060
     FM220100 31006KT P6SM FEW200
     FM220300 13006KT P6SM SCT200=



000
FTUS45 KBOI 211120
TAFBNO
TAF
KBNO 211120Z 2112/2212 24007KT P6SM VCSH SCT050 BKN070
     FM211700 23010KT P6SM SCT040
     FM220300 VRB03KT P6SM SCT150
     FM221100 VRB03KT P6SM BKN100=



000
FTUS45 KBOI 211120
TAFBNO
TAF
KBNO 211120Z 2112/2212 24007KT P6SM VCSH SCT050 BKN070
     FM211700 23010KT P6SM SCT040
     FM220300 VRB03KT P6SM SCT150
     FM221100 VRB03KT P6SM BKN100=



000
FTUS45 KBOI 211120
TAFBOI
TAF
KBOI 211120Z 2112/2212 31011KT P6SM -RA FEW025 OVC045
     FM211600 30015KT P6SM VCSH BKN060
     FM212000 31013G23KT P6SM SCT060
     FM220100 31006KT P6SM FEW200
     FM220300 13006KT P6SM SCT200=



000
FTUS45 KBOI 211120
TAFBNO
TAF
KBNO 211120Z 2112/2212 24007KT P6SM VCSH SCT050 BKN070
     FM211700 23010KT P6SM SCT040
     FM220300 VRB03KT P6SM SCT150
     FM221100 VRB03KT P6SM BKN100=



000
FTUS45 KBOI 211120
TAFMYL
TAF
KMYL 211120Z 2112/2212 VRB05KT 6SM -RA OVC035
      TEMPO 2114/2118 31008KT 6SM -RA FEW012 BKN022 OVC035
     FM212000 25012KT P6SM -SHRA SCT040 BKN060
     FM220000 VRB04KT P6SM VCSH SCT060
     FM220300 VRB02KT P6SM BKN060
      TEMPO 2210/2212 00000KT 6SM BR SCT005=



000
FTUS45 KBOI 210833 AAA
TAFBKE
TAF AMD
KBKE 210833Z 2109/2206 32011KT P6SM -SHRA BKN050 OVC080
     FM211800 31007KT P6SM SCT060
     FM220200 15005KT P6SM SCT100=



000
FTUS45 KBOI 210833 AAA
TAFBKE
TAF AMD
KBKE 210833Z 2109/2206 32011KT P6SM -SHRA BKN050 OVC080
     FM211800 31007KT P6SM SCT060
     FM220200 15005KT P6SM SCT100=



000
FTUS45 KBOI 210832 AAA
TAFTWF
TAF AMD
KTWF 210832Z 2109/2206 22015KT P6SM VCSH BKN110
     FM211200 23015G25KT P6SM -SHRA BKN050 OVC090
     FM211800 26020G30KT P6SM VCSH SCT060 BKN120
     FM220000 26015G25KT P6SM SCT080=



000
FTUS45 KBOI 210832 AAA
TAFTWF
TAF AMD
KTWF 210832Z 2109/2206 22015KT P6SM VCSH BKN110
     FM211200 23015G25KT P6SM -SHRA BKN050 OVC090
     FM211800 26020G30KT P6SM VCSH SCT060 BKN120
     FM220000 26015G25KT P6SM SCT080=



000
FTUS45 KBOI 210830 AAA
TAFJER
TAF AMD
KJER 210830Z 2109/2206 13011KT P6SM VCSH BKN100
     FM211200 21012KT P6SM -SHRA BKN050 OVC090
     FM211800 24020G30KT P6SM VCSH SCT050 BKN090
     FM220000 25015G25KT P6SM SCT080=



000
FTUS45 KBOI 210830 AAA
TAFJER
TAF AMD
KJER 210830Z 2109/2206 13011KT P6SM VCSH BKN100
     FM211200 21012KT P6SM -SHRA BKN050 OVC090
     FM211800 24020G30KT P6SM VCSH SCT050 BKN090
     FM220000 25015G25KT P6SM SCT080=



000
FTUS45 KBOI 210719 AAA
TAFBOI
TAF AMD
KBOI 210719Z 2107/2206 34010G20KT P6SM -SHRA BKN070 OVC120
     FM210900 31012G22KT P6SM -RA OVC040
     FM211600 30015G25KT P6SM VCSH BKN060
     FM212000 31010KT P6SM SCT060
     FM220000 31006KT P6SM FEW100=



000
FTUS45 KBOI 210719 AAA
TAFBOI
TAF AMD
KBOI 210719Z 2107/2206 34010G20KT P6SM -SHRA BKN070 OVC120
     FM210900 31012G22KT P6SM -RA OVC040
     FM211600 30015G25KT P6SM VCSH BKN060
     FM212000 31010KT P6SM SCT060
     FM220000 31006KT P6SM FEW100=



000
FTUS45 KBOI 210522
TAFTWF
TAF
KTWF 210522Z 2106/2206 22010KT P6SM SCT120
     FM211200 23015G25KT P6SM -SHRA BKN050 OVC090
     FM211800 26020G30KT P6SM VCSH SCT060 BKN120
     FM220000 26015G25KT P6SM SCT080=



000
FTUS45 KBOI 210522
TAFJER
TAF
KJER 210522Z 2106/2206 22007KT P6SM BKN100
     FM211200 21012KT P6SM -SHRA BKN050 OVC090
     FM211800 24020G30KT P6SM VCSH SCT050 BKN090
     FM220000 25015G25KT P6SM SCT080=



000
FTUS45 KBOI 210522
TAFMYL
TAF
KMYL 210522Z 2106/2206 VRB03KT P6SM -SHRA BKN050 OVC100
     FM210900 30012KT P6SM -RA OVC040
     FM211200 VRB05KT 6SM -RA OVC025
     FM212000 25012KT P6SM -SHRA SCT040 BKN060
     FM220000 VRB04KT P6SM VCSH SCT060=



000
FTUS45 KBOI 210522
TAFBKE
TAF
KBKE 210522Z 2106/2206 34015G25KT P6SM -RA BKN090
     FM211000 32012KT P6SM -SHRA BKN050
     FM211800 31007KT P6SM SCT060
     FM220200 15005KT P6SM SCT100=



000
FTUS45 KBOI 210522
TAFBNO
TAF
KBNO 210522Z 2106/2206 30005KT P6SM -RA OVC040
     FM211200 24007KT P6SM VCSH BKN050
     FM211900 23010KT P6SM SCT060
     FM220000 21006KT P6SM SCT120=



000
FTUS45 KBOI 210522
TAFBOI
TAF
KBOI 210522Z 2106/2206 27010G20KT P6SM FEW100 BKN150
     FM210900 31012G22KT P6SM -RA OVC040
     FM211600 30015G25KT P6SM VCSH BKN060
     FM212000 31010KT P6SM SCT060
     FM220000 31006KT P6SM FEW100=



000
FTUS45 KBOI 210522
TAFMYL
TAF
KMYL 210522Z 2106/2206 VRB03KT P6SM -SHRA BKN050 OVC100
     FM210900 30012KT P6SM -RA OVC040
     FM211200 VRB05KT 6SM -RA OVC025
     FM212000 25012KT P6SM -SHRA SCT040 BKN060
     FM220000 VRB04KT P6SM VCSH SCT060=



000
FTUS45 KBOI 210522
TAFBNO
TAF
KBNO 210522Z 2106/2206 30005KT P6SM -RA OVC040
     FM211200 24007KT P6SM VCSH BKN050
     FM211900 23010KT P6SM SCT060
     FM220000 21006KT P6SM SCT120=



000
FTUS45 KBOI 210522
TAFBOI
TAF
KBOI 210522Z 2106/2206 27010G20KT P6SM FEW100 BKN150
     FM210900 31012G22KT P6SM -RA OVC040
     FM211600 30015G25KT P6SM VCSH BKN060
     FM212000 31010KT P6SM SCT060
     FM220000 31006KT P6SM FEW100=



000
FTUS45 KBOI 210522
TAFJER
TAF
KJER 210522Z 2106/2206 22007KT P6SM BKN100
     FM211200 21012KT P6SM -SHRA BKN050 OVC090
     FM211800 24020G30KT P6SM VCSH SCT050 BKN090
     FM220000 25015G25KT P6SM SCT080=



000
FTUS45 KBOI 210522
TAFBKE
TAF
KBKE 210522Z 2106/2206 34015G25KT P6SM -RA BKN090
     FM211000 32012KT P6SM -SHRA BKN050
     FM211800 31007KT P6SM SCT060
     FM220200 15005KT P6SM SCT100=



000
FTUS45 KBOI 210522
TAFTWF
TAF
KTWF 210522Z 2106/2206 22010KT P6SM SCT120
     FM211200 23015G25KT P6SM -SHRA BKN050 OVC090
     FM211800 26020G30KT P6SM VCSH SCT060 BKN120
     FM220000 26015G25KT P6SM SCT080=



000
FTUS45 KBOI 210458 AAC
TAFTWF
TAF AMD
KTWF 210458Z 2105/2124 22010KT P6SM FEW120
     FM211500 23015G25KT P6SM -SHRA BKN050 OVC090
     FM211800 26020G30KT P6SM VCSH SCT060 BKN120
     FM212200 26015G25KT P6SM SCT080=



000
FTUS45 KBOI 210458 AAC
TAFTWF
TAF AMD
KTWF 210458Z 2105/2124 22010KT P6SM FEW120
     FM211500 23015G25KT P6SM -SHRA BKN050 OVC090
     FM211800 26020G30KT P6SM VCSH SCT060 BKN120
     FM212200 26015G25KT P6SM SCT080=



000
FTUS45 KBOI 210415 AAB
TAFTWF
TAF AMD
KTWF 210415Z 2104/2124 15018G26KT P6SM FEW100
     FM211500 23015G25KT P6SM -SHRA BKN050 OVC090
     FM211800 26020G30KT P6SM VCSH SCT060 BKN120
     FM212200 26015G25KT P6SM SCT080=



000
FTUS45 KBOI 210415 AAB
TAFTWF
TAF AMD
KTWF 210415Z 2104/2124 15018G26KT P6SM FEW100
     FM211500 23015G25KT P6SM -SHRA BKN050 OVC090
     FM211800 26020G30KT P6SM VCSH SCT060 BKN120
     FM212200 26015G25KT P6SM SCT080=



000
FTUS45 KBOI 210415 AAB
TAFTWF
TAF AMD
KTWF 210415Z 2104/2124 15018G26KT P6SM FEW100
     FM211500 23015G25KT P6SM -SHRA BKN050 OVC090
     FM211800 26020G30KT P6SM VCSH SCT060 BKN120
     FM212200 26015G25KT P6SM SCT080=



000
FTUS45 KBOI 210415 AAB
TAFTWF
TAF AMD
KTWF 210415Z 2104/2124 15018G26KT P6SM FEW100
     FM211500 23015G25KT P6SM -SHRA BKN050 OVC090
     FM211800 26020G30KT P6SM VCSH SCT060 BKN120
     FM212200 26015G25KT P6SM SCT080=



000
FTUS45 KBOI 210414 AAB
TAFBKE
TAF AMD
KBKE 210414Z 2104/2124 32019G27KT P6SM -RA BKN090
     FM210800 32010KT P6SM -SHRA OVC060
     FM211600 32010KT P6SM VCSH BKN050
     FM212000 28005KT P6SM SCT060=



000
FTUS45 KBOI 210414 AAB
TAFBKE
TAF AMD
KBKE 210414Z 2104/2124 32019G27KT P6SM -RA BKN090
     FM210800 32010KT P6SM -SHRA OVC060
     FM211600 32010KT P6SM VCSH BKN050
     FM212000 28005KT P6SM SCT060=



000
FTUS45 KBOI 210414 AAB
TAFBKE
TAF AMD
KBKE 210414Z 2104/2124 32019G27KT P6SM -RA BKN090
     FM210800 32010KT P6SM -SHRA OVC060
     FM211600 32010KT P6SM VCSH BKN050
     FM212000 28005KT P6SM SCT060=



000
FTUS45 KBOI 210414 AAB
TAFBKE
TAF AMD
KBKE 210414Z 2104/2124 32019G27KT P6SM -RA BKN090
     FM210800 32010KT P6SM -SHRA OVC060
     FM211600 32010KT P6SM VCSH BKN050
     FM212000 28005KT P6SM SCT060=



000
FTUS45 KBOI 210414 AAB
TAFBNO
TAF AMD
KBNO 210414Z 2104/2124 23008KT P6SM VCSH BKN050 OVC100
     FM211500 24006KT P6SM VCSH BKN050
     FM211900 23010KT P6SM SCT060=



000
FTUS45 KBOI 210414 AAB
TAFBNO
TAF AMD
KBNO 210414Z 2104/2124 23008KT P6SM VCSH BKN050 OVC100
     FM211500 24006KT P6SM VCSH BKN050
     FM211900 23010KT P6SM SCT060=



000
FTUS45 KBOI 210056 AAA
TAFTWF
TAF AMD
KTWF 210056Z 2101/2124 14013KT P6SM FEW100
     FM210900 22010KT P6SM -SHRA SCT060 BKN120
     FM211500 23015G25KT P6SM -SHRA BKN050 OVC090
     FM211800 26020G30KT P6SM VCSH SCT060 BKN120
     FM212200 26015G25KT P6SM SCT080=



000
FTUS45 KBOI 210056 AAA
TAFMYL
TAF AMD
KMYL 210056Z 2101/2124 VRB03KT P6SM BKN150
     FM210900 27008KT P6SM -SHRA OVC050
     FM211200 VRB05KT 6SM -RA OVC025
     FM212000 24012KT P6SM -SHRA SCT040 BKN060=



000
FTUS45 KBOI 210056 AAA
TAFMYL
TAF AMD
KMYL 210056Z 2101/2124 VRB03KT P6SM BKN150
     FM210900 27008KT P6SM -SHRA OVC050
     FM211200 VRB05KT 6SM -RA OVC025
     FM212000 24012KT P6SM -SHRA SCT040 BKN060=



000
FTUS45 KBOI 210043 AAA
TAFBNO
TAF AMD
KBNO 210043Z 2101/2124 24023G31KT 5SM BLDU BKN025 OVC100
     FM210200 25012G20KT P6SM -SHRA SCT025 OVC040
     FM211500 24006KT P6SM VCSH BKN050
     FM211900 23010KT P6SM SCT060=



000
FTUS45 KBOI 210043 AAA
TAFBNO
TAF AMD
KBNO 210043Z 2101/2124 24023G31KT 5SM BLDU BKN025 OVC100
     FM210200 25012G20KT P6SM -SHRA SCT025 OVC040
     FM211500 24006KT P6SM VCSH BKN050
     FM211900 23010KT P6SM SCT060=



000
FTUS45 KBOI 210000 AAA
TAFBKE
TAF AMD
KBKE 210000Z 2100/2124 10010KT P6SM BKN120
     FM210800 32010KT P6SM -SHRA OVC060
     FM211600 32010KT P6SM VCSH BKN050
     FM212000 28005KT P6SM SCT060=



000
FTUS45 KBOI 210000 AAA
TAFBKE
TAF AMD
KBKE 210000Z 2100/2124 10010KT P6SM BKN120
     FM210800 32010KT P6SM -SHRA OVC060
     FM211600 32010KT P6SM VCSH BKN050
     FM212000 28005KT P6SM SCT060=



000
FTUS45 KBOI 202328
TAFMYL
TAF
KMYL 202328Z 2100/2124 19015KT P6SM BKN150
     FM210900 27008KT P6SM -SHRA OVC050
     FM211200 VRB05KT 6SM -RA OVC025
     FM212000 24012KT P6SM -SHRA SCT040 BKN060=



000
FTUS45 KBOI 202328
TAFBKE
TAF
KBKE 202328Z 2100/2124 17015KT P6SM BKN120
     FM210800 32010KT P6SM -SHRA OVC060
     FM211600 32010KT P6SM VCSH BKN050
     FM212000 28005KT P6SM SCT060=



000
FTUS45 KBOI 202328
TAFBOI
TAF
KBOI 202328Z 2100/2124 32006KT P6SM FEW100 BKN150
     FM210900 14010KT P6SM -SHRA OVC050
     FM211300 31012G22KT P6SM -RA OVC040
     FM211800 30015G25KT P6SM VCSH BKN060
     FM212200 31010KT P6SM SCT060=



000
FTUS45 KBOI 202328
TAFJER
TAF
KJER 202328Z 2100/2124 15005KT P6SM BKN100
     FM210900 20010KT P6SM -SHRA SCT060 BKN120
     FM211500 24012G20KT P6SM -SHRA BKN050 OVC090
     FM211800 24015G25KT P6SM VCSH SCT060 BKN120
     FM212200 25015G25KT P6SM SCT080=



000
FTUS45 KBOI 202328
TAFTWF
TAF
KTWF 202328Z 2100/2124 19010KT P6SM FEW100
     FM210900 22010KT P6SM -SHRA SCT060 BKN120
     FM211500 23015G25KT P6SM -SHRA BKN050 OVC090
     FM211800 26020G30KT P6SM VCSH SCT060 BKN120
     FM212200 26015G25KT P6SM SCT080=



000
FTUS45 KBOI 202328
TAFBNO
TAF
KBNO 202328Z 2100/2124 20007KT P6SM FEW100
     FM210200 22010KT P6SM VCSH OVC060
     FM210600 25012KT P6SM -SHRA OVC040
     FM211500 24006KT P6SM VCSH BKN050
     FM211900 23010KT P6SM SCT060=



000
FTUS45 KBOI 202328
TAFBOI
TAF
KBOI 202328Z 2100/2124 32006KT P6SM FEW100 BKN150
     FM210900 14010KT P6SM -SHRA OVC050
     FM211300 31012G22KT P6SM -RA OVC040
     FM211800 30015G25KT P6SM VCSH BKN060
     FM212200 31010KT P6SM SCT060=



000
FTUS45 KBOI 202328
TAFBNO
TAF
KBNO 202328Z 2100/2124 20007KT P6SM FEW100
     FM210200 22010KT P6SM VCSH OVC060
     FM210600 25012KT P6SM -SHRA OVC040
     FM211500 24006KT P6SM VCSH BKN050
     FM211900 23010KT P6SM SCT060=



000
FTUS45 KBOI 202328
TAFJER
TAF
KJER 202328Z 2100/2124 15005KT P6SM BKN100
     FM210900 20010KT P6SM -SHRA SCT060 BKN120
     FM211500 24012G20KT P6SM -SHRA BKN050 OVC090
     FM211800 24015G25KT P6SM VCSH SCT060 BKN120
     FM212200 25015G25KT P6SM SCT080=



000
FTUS45 KBOI 202328
TAFTWF
TAF
KTWF 202328Z 2100/2124 19010KT P6SM FEW100
     FM210900 22010KT P6SM -SHRA SCT060 BKN120
     FM211500 23015G25KT P6SM -SHRA BKN050 OVC090
     FM211800 26020G30KT P6SM VCSH SCT060 BKN120
     FM212200 26015G25KT P6SM SCT080=



000
FTUS45 KBOI 202328
TAFBKE
TAF
KBKE 202328Z 2100/2124 17015KT P6SM BKN120
     FM210800 32010KT P6SM -SHRA OVC060
     FM211600 32010KT P6SM VCSH BKN050
     FM212000 28005KT P6SM SCT060=



000
FTUS45 KBOI 202328
TAFMYL
TAF
KMYL 202328Z 2100/2124 19015KT P6SM BKN150
     FM210900 27008KT P6SM -SHRA OVC050
     FM211200 VRB05KT 6SM -RA OVC025
     FM212000 24012KT P6SM -SHRA SCT040 BKN060=



000
FTUS45 KBOI 202205 AAB
TAFJER
TAF AMD
KJER 202205Z 2022/2118 11007KT P6SM SKC
     FM210200 06007KT P6SM BKN200
     FM210600 05010KT P6SM -SHRA OVC100
     FM211500 24012G17KT P6SM VCSH SCT040 OVC060=



000
FTUS45 KBOI 202205 AAA
TAFBNO
TAF AMD
KBNO 202205Z 2022/2118 20010KT P6SM SCT080 BKN120
     FM210200 25010KT P6SM VCSH OVC060
     FM210600 28010KT P6SM -SHRA OVC050
     FM211500 23010KT P6SM BKN060=



000
FTUS45 KBOI 202205 AAA
TAFBNO
TAF AMD
KBNO 202205Z 2022/2118 20010KT P6SM SCT080 BKN120
     FM210200 25010KT P6SM VCSH OVC060
     FM210600 28010KT P6SM -SHRA OVC050
     FM211500 23010KT P6SM BKN060=



000
FTUS45 KBOI 202205 AAB
TAFJER
TAF AMD
KJER 202205Z 2022/2118 11007KT P6SM SKC
     FM210200 06007KT P6SM BKN200
     FM210600 05010KT P6SM -SHRA OVC100
     FM211500 24012G17KT P6SM VCSH SCT040 OVC060=



000
FTUS45 KBOI 202205 AAB
TAFJER
TAF AMD
KJER 202205Z 2022/2118 11007KT P6SM SKC
     FM210200 06007KT P6SM BKN200
     FM210600 05010KT P6SM -SHRA OVC100
     FM211500 24012G17KT P6SM VCSH SCT040 OVC060=



000
FTUS45 KBOI 202205 AAA
TAFBNO
TAF AMD
KBNO 202205Z 2022/2118 20010KT P6SM SCT080 BKN120
     FM210200 25010KT P6SM VCSH OVC060
     FM210600 28010KT P6SM -SHRA OVC050
     FM211500 23010KT P6SM BKN060=



000
FTUS45 KBOI 202205 AAA
TAFBNO
TAF AMD
KBNO 202205Z 2022/2118 20010KT P6SM SCT080 BKN120
     FM210200 25010KT P6SM VCSH OVC060
     FM210600 28010KT P6SM -SHRA OVC050
     FM211500 23010KT P6SM BKN060=



000
FTUS45 KBOI 202205 AAB
TAFJER
TAF AMD
KJER 202205Z 2022/2118 11007KT P6SM SKC
     FM210200 06007KT P6SM BKN200
     FM210600 05010KT P6SM -SHRA OVC100
     FM211500 24012G17KT P6SM VCSH SCT040 OVC060=



000
FTUS45 KBOI 202047 AAA
TAFJER
TAF AMD
KJER 202047Z 2021/2118 11012G20KT P6SM SKC
     FM210200 06007KT P6SM BKN200
     FM210600 05010KT P6SM -SHRA OVC100
     FM211500 24012G17KT P6SM VCSH SCT040 OVC060=



000
FTUS45 KBOI 201916 AAA
TAFTWF
TAF AMD
KTWF 201916Z 2019/2118 17012G17KT P6SM FEW250
     FM210200 13010KT P6SM BKN150
     FM210600 18010KT P6SM -SHRA OVC120
     FM211500 26015G20KT P6SM VCSH OVC060=



000
FTUS45 KBOI 201916 AAA
TAFTWF
TAF AMD
KTWF 201916Z 2019/2118 17012G17KT P6SM FEW250
     FM210200 13010KT P6SM BKN150
     FM210600 18010KT P6SM -SHRA OVC120
     FM211500 26015G20KT P6SM VCSH OVC060=



000
FTUS45 KBOI 201731
TAFMYL
TAF
KMYL 201731Z 2018/2118 18007KT P6SM BKN120
     FM210700 VRB05KT P6SM -SHRA OVC050
     FM211200 VRB05KT P6SM -RA OVC020
     FM211500 VRB05KT 5SM -RA OVC015=



000
FTUS45 KBOI 201731
TAFBKE
TAF
KBKE 201731Z 2018/2118 13011G18KT P6SM BKN120
     FM210800 32010KT P6SM -SHRA OVC030
     FM211500 32010KT P6SM BKN060=



000
FTUS45 KBOI 201731
TAFJER
TAF
KJER 201731Z 2018/2118 06015G22KT P6SM SKC
     FM210200 06007KT P6SM BKN200
     FM210600 05010KT P6SM -SHRA OVC100
     FM211500 24012G17KT P6SM VCSH SCT040 OVC060=



000
FTUS45 KBOI 201731
TAFTWF
TAF
KTWF 201731Z 2018/2118 03008KT P6SM FEW250
     FM210200 13010KT P6SM BKN150
     FM210600 18010KT P6SM -SHRA OVC120
     FM211500 26015G20KT P6SM VCSH OVC060=



000
FTUS45 KBOI 201731
TAFBOI
TAF
KBOI 201731Z 2018/2118 13010KT P6SM SKC
     FM210000 VRB05KT P6SM VCSH OVC150
     FM210900 14010KT P6SM -SHRA OVC050
     FM211300 31012G17KT P6SM -RA OVC040
     FM211700 31008KT P6SM VCSH OVC060=



000
FTUS45 KBOI 201731
TAFBNO
TAF
KBNO 201731Z 2018/2118 VRB05KT P6SM FEW200
     FM202200 20012G22KT P6SM SCT080 BKN120
     FM210200 25010KT P6SM VCSH OVC060
     FM210600 28010KT P6SM -SHRA OVC050
     FM211500 23010KT P6SM BKN060=



000
FTUS45 KBOI 201731
TAFJER
TAF
KJER 201731Z 2018/2118 06015G22KT P6SM SKC
     FM210200 06007KT P6SM BKN200
     FM210600 05010KT P6SM -SHRA OVC100
     FM211500 24012G17KT P6SM VCSH SCT040 OVC060=



000
FTUS45 KBOI 201731
TAFTWF
TAF
KTWF 201731Z 2018/2118 03008KT P6SM FEW250
     FM210200 13010KT P6SM BKN150
     FM210600 18010KT P6SM -SHRA OVC120
     FM211500 26015G20KT P6SM VCSH OVC060=



000
FTUS45 KBOI 201731
TAFMYL
TAF
KMYL 201731Z 2018/2118 18007KT P6SM BKN120
     FM210700 VRB05KT P6SM -SHRA OVC050
     FM211200 VRB05KT P6SM -RA OVC020
     FM211500 VRB05KT 5SM -RA OVC015=



000
FTUS45 KBOI 201731
TAFBOI
TAF
KBOI 201731Z 2018/2118 13010KT P6SM SKC
     FM210000 VRB05KT P6SM VCSH OVC150
     FM210900 14010KT P6SM -SHRA OVC050
     FM211300 31012G17KT P6SM -RA OVC040
     FM211700 31008KT P6SM VCSH OVC060=



000
FTUS45 KBOI 201731
TAFBNO
TAF
KBNO 201731Z 2018/2118 VRB05KT P6SM FEW200
     FM202200 20012G22KT P6SM SCT080 BKN120
     FM210200 25010KT P6SM VCSH OVC060
     FM210600 28010KT P6SM -SHRA OVC050
     FM211500 23010KT P6SM BKN060=



000
FTUS45 KBOI 201731
TAFBKE
TAF
KBKE 201731Z 2018/2118 13011G18KT P6SM BKN120
     FM210800 32010KT P6SM -SHRA OVC030
     FM211500 32010KT P6SM BKN060=



000
FTUS45 KBOI 201139
TAFBNO
TAF
KBNO 201139Z 2012/2112 VRB05KT P6SM FEW200
     FM201900 20012G22KT P6SM SCT080 BKN120
     FM210200 25010KT P6SM VCSH OVC060
     FM210600 28010KT P6SM -SHRA OVC050=



000
FTUS45 KBOI 201139
TAFJER
TAF
KJER 201139Z 2012/2112 06012KT P6SM SKC
     FM201600 06015G22KT P6SM SKC
     FM210200 06007KT P6SM BKN200
     FM210800 21007KT P6SM VCSH OVC100=



000
FTUS45 KBOI 201139
TAFBKE
TAF
KBKE 201139Z 2012/2112 15007KT P6SM FEW200
     FM201900 13011G18KT P6SM SCT080 BKN120
     FM210500 32010KT P6SM -SHRA OVC030=



000
FTUS45 KBOI 201139
TAFTWF
TAF
KTWF 201139Z 2012/2112 16007KT P6SM SKC
     FM201700 08008KT P6SM FEW250
     FM210200 13010KT P6SM BKN150
     FM210600 20010KT P6SM VCSH OVC120=



000
FTUS45 KBOI 201139
TAFBOI
TAF
KBOI 201139Z 2012/2112 13010KT P6SM SKC
     FM210000 VRB05KT P6SM VCSH OVC150
     FM210900 14010KT P6SM -SHRA OVC040=



000
FTUS45 KBOI 201139
TAFMYL
TAF
KMYL 201139Z 2012/2112 VRB03KT P6SM SKC
     FM201900 18007KT P6SM SCT100 BKN150
     FM210700 VRB05KT P6SM -SHRA OVC050
     FM211100 VRB05KT P6SM -RA OVC030=



000
FTUS45 KBOI 201139
TAFBNO
TAF
KBNO 201139Z 2012/2112 VRB05KT P6SM FEW200
     FM201900 20012G22KT P6SM SCT080 BKN120
     FM210200 25010KT P6SM VCSH OVC060
     FM210600 28010KT P6SM -SHRA OVC050=



000
FTUS45 KBOI 201139
TAFTWF
TAF
KTWF 201139Z 2012/2112 16007KT P6SM SKC
     FM201700 08008KT P6SM FEW250
     FM210200 13010KT P6SM BKN150
     FM210600 20010KT P6SM VCSH OVC120=



000
FTUS45 KBOI 201139
TAFJER
TAF
KJER 201139Z 2012/2112 06012KT P6SM SKC
     FM201600 06015G22KT P6SM SKC
     FM210200 06007KT P6SM BKN200
     FM210800 21007KT P6SM VCSH OVC100=



000
FTUS45 KBOI 201139
TAFBKE
TAF
KBKE 201139Z 2012/2112 15007KT P6SM FEW200
     FM201900 13011G18KT P6SM SCT080 BKN120
     FM210500 32010KT P6SM -SHRA OVC030=



000
FTUS45 KBOI 201139
TAFMYL
TAF
KMYL 201139Z 2012/2112 VRB03KT P6SM SKC
     FM201900 18007KT P6SM SCT100 BKN150
     FM210700 VRB05KT P6SM -SHRA OVC050
     FM211100 VRB05KT P6SM -RA OVC030=



000
FTUS45 KBOI 201139
TAFBOI
TAF
KBOI 201139Z 2012/2112 13010KT P6SM SKC
     FM210000 VRB05KT P6SM VCSH OVC150
     FM210900 14010KT P6SM -SHRA OVC040=



000
FTUS45 KBOI 200520
TAFBKE
TAF
KBKE 200520Z 2006/2106 15006KT P6SM SCT200
     FM201900 13010KT P6SM SCT080 BKN120
     FM210300 29006KT P6SM -SHRA SCT060 BKN100=



000
FTUS45 KBOI 200520
TAFJER
TAF
KJER 200520Z 2006/2106 06012KT P6SM SKC
     FM201600 06015G25KT P6SM SKC
     FM210200 06007KT P6SM BKN200=



000
FTUS45 KBOI 200520
TAFBNO
TAF
KBNO 200520Z 2006/2106 VRB05KT P6SM SCT200
     FM201900 16010KT P6SM SCT080 BKN120
     FM210200 25010KT P6SM VCSH SCT070 BKN120=



000
FTUS45 KBOI 200520
TAFMYL
TAF
KMYL 200520Z 2006/2106 VRB03KT P6SM SKC
     FM201900 18007KT P6SM SCT100 BKN150
     FM210100 VRB03KT P6SM SCT080 BKN120=



000
FTUS45 KBOI 200520
TAFTWF
TAF
KTWF 200520Z 2006/2106 16013G21KT P6SM SKC
     FM201700 10007KT P6SM SKC
     FM210200 13010KT P6SM BKN200=



000
FTUS45 KBOI 200520
TAFBOI
TAF
KBOI 200520Z 2006/2106 13008KT P6SM SKC
     FM210000 VRB05KT P6SM SCT100 BKN150=



000
FTUS45 KBOI 200520
TAFBKE
TAF
KBKE 200520Z 2006/2106 15006KT P6SM SCT200
     FM201900 13010KT P6SM SCT080 BKN120
     FM210300 29006KT P6SM -SHRA SCT060 BKN100=



000
FTUS45 KBOI 200520
TAFBNO
TAF
KBNO 200520Z 2006/2106 VRB05KT P6SM SCT200
     FM201900 16010KT P6SM SCT080 BKN120
     FM210200 25010KT P6SM VCSH SCT070 BKN120=



000
FTUS45 KBOI 200520
TAFJER
TAF
KJER 200520Z 2006/2106 06012KT P6SM SKC
     FM201600 06015G25KT P6SM SKC
     FM210200 06007KT P6SM BKN200=



000
FTUS45 KBOI 200520
TAFMYL
TAF
KMYL 200520Z 2006/2106 VRB03KT P6SM SKC
     FM201900 18007KT P6SM SCT100 BKN150
     FM210100 VRB03KT P6SM SCT080 BKN120=



000
FTUS45 KBOI 200520
TAFMYL
TAF
KMYL 200520Z 2006/2106 VRB03KT P6SM SKC
     FM201900 18007KT P6SM SCT100 BKN150
     FM210100 VRB03KT P6SM SCT080 BKN120=



000
FTUS45 KBOI 200520
TAFBKE
TAF
KBKE 200520Z 2006/2106 15006KT P6SM SCT200
     FM201900 13010KT P6SM SCT080 BKN120
     FM210300 29006KT P6SM -SHRA SCT060 BKN100=



000
FTUS45 KBOI 200520
TAFBOI
TAF
KBOI 200520Z 2006/2106 13008KT P6SM SKC
     FM210000 VRB05KT P6SM SCT100 BKN150=



000
FTUS45 KBOI 200520
TAFJER
TAF
KJER 200520Z 2006/2106 06012KT P6SM SKC
     FM201600 06015G25KT P6SM SKC
     FM210200 06007KT P6SM BKN200=



000
FTUS45 KBOI 200520
TAFBOI
TAF
KBOI 200520Z 2006/2106 13008KT P6SM SKC
     FM210000 VRB05KT P6SM SCT100 BKN150=



000
FTUS45 KBOI 200520
TAFTWF
TAF
KTWF 200520Z 2006/2106 16013G21KT P6SM SKC
     FM201700 10007KT P6SM SKC
     FM210200 13010KT P6SM BKN200=



000
FTUS45 KBOI 200520
TAFBNO
TAF
KBNO 200520Z 2006/2106 VRB05KT P6SM SCT200
     FM201900 16010KT P6SM SCT080 BKN120
     FM210200 25010KT P6SM VCSH SCT070 BKN120=



000
FTUS45 KBOI 200520
TAFTWF
TAF
KTWF 200520Z 2006/2106 16013G21KT P6SM SKC
     FM201700 10007KT P6SM SKC
     FM210200 13010KT P6SM BKN200=



000
FTUS45 KBOI 200347 AAA
TAFBKE
TAF AMD
KBKE 200347Z 2004/2024 15005KT P6SM SCT200
     FM202100 13015KT P6SM SCT080 BKN120=



000
FTUS45 KBOI 200347 AAA
TAFBKE
TAF AMD
KBKE 200347Z 2004/2024 15005KT P6SM SCT200
     FM202100 13015KT P6SM SCT080 BKN120=



000
FTUS45 KBOI 192334
TAFBNO
TAF
KBNO 192334Z 2000/2024 12006KT P6SM SKC
     FM200600 VRB05KT P6SM SCT200
     FM201900 16010KT P6SM SCT080 BKN120=



000
FTUS45 KBOI 192334
TAFJER
TAF
KJER 192334Z 2000/2024 08010KT P6SM SKC=



000
FTUS45 KBOI 192334
TAFBOI
TAF
KBOI 192334Z 2000/2024 16010KT P6SM SKC=



000
FTUS45 KBOI 192334
TAFMYL
TAF
KMYL 192334Z 2000/2024 19008KT P6SM SKC
     FM200300 VRB03KT P6SM SKC
     FM202000 18012KT P6SM FEW100 BKN150=



000
FTUS45 KBOI 192334
TAFTWF
TAF
KTWF 192334Z 2000/2024 05010KT P6SM SKC
     FM200300 14007KT P6SM SKC
     FM201700 10007KT P6SM SKC=



000
FTUS45 KBOI 192334
TAFBKE
TAF
KBKE 192334Z 2000/2024 10015KT P6SM SCT200
     FM200600 13005KT P6SM SCT200
     FM202100 13015KT P6SM SCT080 BKN120=



000
FTUS45 KBOI 192334
TAFTWF
TAF
KTWF 192334Z 2000/2024 05010KT P6SM SKC
     FM200300 14007KT P6SM SKC
     FM201700 10007KT P6SM SKC=



000
FTUS45 KBOI 192334
TAFMYL
TAF
KMYL 192334Z 2000/2024 19008KT P6SM SKC
     FM200300 VRB03KT P6SM SKC
     FM202000 18012KT P6SM FEW100 BKN150=



000
FTUS45 KBOI 192334
TAFBKE
TAF
KBKE 192334Z 2000/2024 10015KT P6SM SCT200
     FM200600 13005KT P6SM SCT200
     FM202100 13015KT P6SM SCT080 BKN120=



000
FTUS45 KBOI 192334
TAFJER
TAF
KJER 192334Z 2000/2024 08010KT P6SM SKC=



000
FTUS45 KBOI 192334
TAFTWF
TAF
KTWF 192334Z 2000/2024 05010KT P6SM SKC
     FM200300 14007KT P6SM SKC
     FM201700 10007KT P6SM SKC=



000
FTUS45 KBOI 192334
TAFTWF
TAF
KTWF 192334Z 2000/2024 05010KT P6SM SKC
     FM200300 14007KT P6SM SKC
     FM201700 10007KT P6SM SKC=



000
FTUS45 KBOI 192334
TAFBOI
TAF
KBOI 192334Z 2000/2024 16010KT P6SM SKC=



000
FTUS45 KBOI 192334
TAFMYL
TAF
KMYL 192334Z 2000/2024 19008KT P6SM SKC
     FM200300 VRB03KT P6SM SKC
     FM202000 18012KT P6SM FEW100 BKN150=



000
FTUS45 KBOI 192334
TAFBKE
TAF
KBKE 192334Z 2000/2024 10015KT P6SM SCT200
     FM200600 13005KT P6SM SCT200
     FM202100 13015KT P6SM SCT080 BKN120=



000
FTUS45 KBOI 192334
TAFJER
TAF
KJER 192334Z 2000/2024 08010KT P6SM SKC=



000
FTUS45 KBOI 192334
TAFBOI
TAF
KBOI 192334Z 2000/2024 16010KT P6SM SKC=



000
FTUS45 KBOI 192334
TAFBOI
TAF
KBOI 192334Z 2000/2024 16010KT P6SM SKC=



000
FTUS45 KBOI 192334
TAFJER
TAF
KJER 192334Z 2000/2024 08010KT P6SM SKC=



000
FTUS45 KBOI 192334
TAFMYL
TAF
KMYL 192334Z 2000/2024 19008KT P6SM SKC
     FM200300 VRB03KT P6SM SKC
     FM202000 18012KT P6SM FEW100 BKN150=



000
FTUS45 KBOI 192334
TAFBNO
TAF
KBNO 192334Z 2000/2024 12006KT P6SM SKC
     FM200600 VRB05KT P6SM SCT200
     FM201900 16010KT P6SM SCT080 BKN120=



000
FTUS45 KBOI 192334
TAFBNO
TAF
KBNO 192334Z 2000/2024 12006KT P6SM SKC
     FM200600 VRB05KT P6SM SCT200
     FM201900 16010KT P6SM SCT080 BKN120=



000
FTUS45 KBOI 192334
TAFBNO
TAF
KBNO 192334Z 2000/2024 12006KT P6SM SKC
     FM200600 VRB05KT P6SM SCT200
     FM201900 16010KT P6SM SCT080 BKN120=



000
FTUS45 KBOI 192334
TAFBKE
TAF
KBKE 192334Z 2000/2024 10015KT P6SM SCT200
     FM200600 13005KT P6SM SCT200
     FM202100 13015KT P6SM SCT080 BKN120=



000
FTUS45 KBOI 192228 AAA
TAFBNO
TAF AMD
KBNO 192228Z 1922/2018 14007KT P6SM SKC=



000
FTUS45 KBOI 192228 AAA
TAFBNO
TAF AMD
KBNO 192228Z 1922/2018 14007KT P6SM SKC=



000
FTUS45 KBOI 192100 AAA
TAFBOI
TAF AMD
KBOI 192100Z 1921/2018 12006KT P6SM SKC=



000
FTUS45 KBOI 192100 AAA
TAFBOI
TAF AMD
KBOI 192100Z 1921/2018 12006KT P6SM SKC=



000
FTUS45 KBOI 191720
TAFBNO
TAF
KBNO 191720Z 1918/2018 VRB05KT P6SM SKC=



000
FTUS45 KBOI 191720
TAFBNO
TAF
KBNO 191720Z 1918/2018 VRB05KT P6SM SKC=



000
FTUS45 KBOI 191720
TAFJER
TAF
KJER 191720Z 1918/2018 05017KT P6SM SKC=



000
FTUS45 KBOI 191720
TAFBOI
TAF
KBOI 191720Z 1918/2018 14014KT P6SM SKC=



000
FTUS45 KBOI 191720
TAFBKE
TAF
KBKE 191720Z 1918/2018 12012G20KT P6SM FEW200
     FM200100 13009KT P6SM FEW200=



000
FTUS45 KBOI 191720
TAFBKE
TAF
KBKE 191720Z 1918/2018 12012G20KT P6SM FEW200
     FM200100 13009KT P6SM FEW200=



000
FTUS45 KBOI 191720
TAFTWF
TAF
KTWF 191720Z 1918/2018 07008KT P6SM SKC
     FM200100 14007KT P6SM SKC=



000
FTUS45 KBOI 191720
TAFMYL
TAF
KMYL 191720Z 1918/2018 VRB05KT P6SM SKC=



000
FTUS45 KBOI 191720
TAFBOI
TAF
KBOI 191720Z 1918/2018 14014KT P6SM SKC=



000
FTUS45 KBOI 191720
TAFTWF
TAF
KTWF 191720Z 1918/2018 07008KT P6SM SKC
     FM200100 14007KT P6SM SKC=



000
FTUS45 KBOI 191720
TAFMYL
TAF
KMYL 191720Z 1918/2018 VRB05KT P6SM SKC=



000
FTUS45 KBOI 191720
TAFJER
TAF
KJER 191720Z 1918/2018 05017KT P6SM SKC=



000
FTUS45 KBOI 191505 AAB
TAFBKE
TAF AMD
KBKE 191505Z 1915/2012 VRB04KT P6SM SKC
      TEMPO 1915/1916 00000KT 1SM BR SKC
     FM191800 12012G20KT P6SM SKC
     FM200100 13009KT P6SM FEW200=



000
FTUS45 KBOI 191505 AAB
TAFBKE
TAF AMD
KBKE 191505Z 1915/2012 VRB04KT P6SM SKC
      TEMPO 1915/1916 00000KT 1SM BR SKC
     FM191800 12012G20KT P6SM SKC
     FM200100 13009KT P6SM FEW200=



000
FTUS45 KBOI 191258 AAA
TAFBKE
TAF AMD
KBKE 191258Z 1913/2012 VRB04KT P6SM SKC
      TEMPO 1913/1914 00000KT 1SM BR SKC
     FM191800 12012G20KT P6SM SKC
     FM200100 13009KT P6SM FEW200=



000
FTUS45 KBOI 191258 AAA
TAFBKE
TAF AMD
KBKE 191258Z 1913/2012 VRB04KT P6SM SKC
      TEMPO 1913/1914 00000KT 1SM BR SKC
     FM191800 12012G20KT P6SM SKC
     FM200100 13009KT P6SM FEW200=



000
FTUS45 KBOI 191139
TAFBNO
TAF
KBNO 191139Z 1912/2012 VRB05KT P6SM SKC=



000
FTUS45 KBOI 191139
TAFBOI
TAF
KBOI 191139Z 1912/2012 14011KT P6SM SKC
      TEMPO 1917/1921 14015G22KT P6SM SKC=



000
FTUS45 KBOI 191139
TAFTWF
TAF
KTWF 191139Z 1912/2012 14011KT P6SM SKC
     FM191800 07008KT P6SM SKC
     FM200100 14007KT P6SM SKC=



000
FTUS45 KBOI 191139
TAFBKE
TAF
KBKE 191139Z 1912/2012 VRB04KT P6SM SKC
      TEMPO 1912/1914 00000KT 2SM BR SKC
     FM191800 12012G20KT P6SM SKC
     FM200100 13009KT P6SM FEW200=



000
FTUS45 KBOI 191139
TAFJER
TAF
KJER 191139Z 1912/2012 05012KT P6SM SKC=



000
FTUS45 KBOI 191139
TAFMYL
TAF
KMYL 191139Z 1912/2012 VRB05KT P6SM SKC
      TEMPO 1912/1914 00000KT 2SM BR SKC=



000
FTUS45 KBOI 191139
TAFBOI
TAF
KBOI 191139Z 1912/2012 14011KT P6SM SKC
      TEMPO 1917/1921 14015G22KT P6SM SKC=



000
FTUS45 KBOI 191139
TAFJER
TAF
KJER 191139Z 1912/2012 05012KT P6SM SKC=



000
FTUS45 KBOI 191139
TAFBNO
TAF
KBNO 191139Z 1912/2012 VRB05KT P6SM SKC=



000
FTUS45 KBOI 191139
TAFTWF
TAF
KTWF 191139Z 1912/2012 14011KT P6SM SKC
     FM191800 07008KT P6SM SKC
     FM200100 14007KT P6SM SKC=



000
FTUS45 KBOI 191139
TAFMYL
TAF
KMYL 191139Z 1912/2012 VRB05KT P6SM SKC
      TEMPO 1912/1914 00000KT 2SM BR SKC=



000
FTUS45 KBOI 191139
TAFBKE
TAF
KBKE 191139Z 1912/2012 VRB04KT P6SM SKC
      TEMPO 1912/1914 00000KT 2SM BR SKC
     FM191800 12012G20KT P6SM SKC
     FM200100 13009KT P6SM FEW200=



    US Dept of Commerce
    National Oceanic and Atmospheric Administration
    National Weather Service
    1325 East West Highway
    Silver Spring, MD 20910
    Page Author: NWS Internet Services Team
Disclaimer
Information Quality
Credits
Glossary
Privacy Policy
Freedom of Information Act (FOIA)
About Us
Career Opportunities